createdAt,value
2022-11-04T00:01:25.328Z,25.20
2022-11-04T00:03:59.024Z,23.17
2022-11-04T00:06:27.544Z,23.50
2022-11-04T00:11:57.798Z,29.25
2022-11-04T00:14:25.671Z,32.80
2022-11-04T00:17:12.418Z,35.30
2022-11-04T00:19:58.948Z,20.90
2022-11-04T00:22:45.838Z,22.50
2022-11-04T00:25:33.081Z,20.90
2022-11-04T00:28:35.524Z,16.90
2022-11-04T00:31:24.678Z,19.73
2022-11-04T00:33:54.515Z,24.38
2022-11-04T00:36:25.432Z,24.65
2022-11-04T00:38:57.272Z,23.63
2022-11-04T00:41:29.160Z,23.83
2022-11-04T00:44:00.557Z,24.63
2022-11-04T00:46:31.575Z,36.47
2022-11-04T00:49:00.411Z,21.27
2022-11-04T00:51:31.284Z,17.55
2022-11-04T00:53:59.204Z,14.27
2022-11-04T00:56:29.092Z,14.13
2022-11-04T00:59:00.411Z,14.73
2022-11-04T01:01:30.591Z,20.95
2022-11-04T01:04:00.573Z,18.77
2022-11-04T01:06:28.485Z,19.25
2022-11-04T01:08:58.330Z,23.67
2022-11-04T01:11:39.746Z,21.50
2022-11-04T01:14:08.451Z,24.75
2022-11-04T01:19:20.026Z,31.35
2022-11-04T01:21:51.727Z,31.80
2022-11-04T01:24:20.324Z,26.33
2022-11-04T01:26:49.646Z,29.00
2022-11-04T01:29:17.762Z,19.40
2022-11-04T01:31:45.538Z,22.30
2022-11-04T01:34:15.613Z,14.73
2022-11-04T01:36:44.781Z,12.93
2022-11-04T01:39:18.832Z,14.15
2022-11-04T01:41:47.764Z,13.10
2022-11-04T01:45:08.193Z,14.80
2022-11-04T01:47:41.346Z,17.13
2022-11-04T01:50:15.001Z,13.90
2022-11-04T01:52:54.528Z,16.20
2022-11-04T01:55:31.995Z,15.30
2022-11-04T01:58:08.286Z,15.80
2022-11-04T02:00:39.647Z,15.50
2022-11-04T02:03:17.699Z,20.20
2022-11-04T02:05:48.341Z,19.15
2022-11-04T02:11:11.474Z,21.08
2022-11-04T02:13:49.425Z,18.60
2022-11-04T02:16:23.266Z,16.90
2022-11-04T02:19:15.846Z,13.68
2022-11-04T02:22:02.913Z,14.13
2022-11-04T02:27:38.690Z,13.75
2022-11-04T02:30:20.509Z,14.20
2022-11-04T02:51:31.903Z,17.33
2022-11-04T02:54:05.857Z,13.73
2022-11-04T02:56:39.651Z,12.40
2022-11-04T03:02:38.097Z,16.00
2022-11-04T03:05:09.623Z,16.58
2022-11-04T03:07:41.572Z,16.38
2022-11-04T03:10:16.688Z,18.77
2022-11-04T03:13:04.794Z,19.00
2022-11-04T03:15:36.448Z,16.65
2022-11-04T03:18:27.103Z,17.40
2022-11-04T03:21:01.947Z,15.27
2022-11-04T03:23:30.256Z,17.48
2022-11-04T03:26:42.938Z,16.15
2022-11-04T03:29:45.095Z,18.67
2022-11-04T03:32:47.229Z,16.67
2022-11-04T03:35:17.837Z,20.30
2022-11-04T03:37:49.251Z,19.85
2022-11-04T03:40:20.889Z,16.80
2022-11-04T03:43:01.759Z,20.30
2022-11-04T03:45:30.655Z,21.00
2022-11-04T03:47:59.282Z,19.77
2022-11-04T03:50:32.710Z,20.73
2022-11-04T03:53:00.828Z,17.92
2022-11-04T03:55:41.661Z,22.33
2022-11-04T03:58:23.103Z,20.20
2022-11-04T04:01:07.947Z,19.08
2022-11-04T04:03:43.632Z,19.40
2022-11-04T04:06:18.622Z,23.95
2022-11-04T04:08:54.963Z,24.48
2022-11-04T04:12:13.676Z,24.40
2022-11-04T04:14:57.140Z,24.35
2022-11-04T04:17:47.658Z,29.15
2022-11-04T04:20:27.773Z,28.92
2022-11-04T04:23:04.568Z,29.90
2022-11-04T04:25:54.202Z,27.00
2022-11-04T04:28:22.414Z,28.77
2022-11-04T04:30:50.956Z,24.92
2022-11-04T04:33:19.647Z,29.63
2022-11-04T04:35:53.603Z,31.80
2022-11-04T04:38:41.508Z,26.33
2022-11-04T04:44:35.742Z,26.15
2022-11-04T04:47:05.607Z,25.58
2022-11-04T04:49:35.494Z,25.08
2022-11-04T04:52:07.925Z,25.83
2022-11-04T04:54:36.516Z,21.90
2022-11-04T04:57:04.383Z,27.42
2022-11-04T04:59:32.338Z,26.10
2022-11-04T05:02:00.372Z,28.60
2022-11-04T05:04:28.405Z,24.70
2022-11-04T05:06:56.459Z,26.05
2022-11-04T05:09:24.742Z,27.10
2022-11-04T05:11:52.653Z,25.45
2022-11-04T05:14:20.591Z,27.98
2022-11-04T05:16:48.569Z,29.08
2022-11-04T05:19:16.408Z,25.77
2022-11-04T05:21:44.487Z,24.55
2022-11-04T05:24:12.568Z,33.90
2022-11-04T05:26:40.516Z,72.72
2022-11-04T05:29:10.103Z,33.28
2022-11-04T05:31:38.663Z,25.30
2022-11-04T05:34:06.782Z,29.90
2022-11-04T05:36:34.820Z,28.98
2022-11-04T05:39:02.851Z,28.92
2022-11-04T05:41:30.812Z,28.15
2022-11-04T05:44:03.955Z,33.35
2022-11-04T05:46:31.992Z,26.75
2022-11-04T05:48:59.943Z,28.13
2022-11-04T05:51:29.042Z,23.52
2022-11-04T05:56:24.788Z,19.98
2022-11-04T05:58:53.996Z,25.48
2022-11-04T06:06:59.329Z,28.83
2022-11-04T06:09:40.100Z,34.13
2022-11-04T06:12:10.613Z,31.92
2022-11-04T06:14:38.746Z,30.45
2022-11-04T06:17:06.842Z,30.60
2022-11-04T06:19:34.794Z,34.40
2022-11-04T06:22:04.228Z,33.17
2022-11-04T06:24:32.089Z,38.42
2022-11-04T06:27:01.377Z,35.40
2022-11-04T06:29:29.404Z,36.03
2022-11-04T06:31:57.259Z,35.15
2022-11-04T06:34:25.932Z,38.38
2022-11-04T06:36:53.915Z,37.58
2022-11-04T06:39:21.880Z,39.85
2022-11-04T06:41:51.659Z,39.90
2022-11-04T06:44:20.092Z,37.90
2022-11-04T06:46:48.338Z,38.40
2022-11-04T06:49:23.454Z,48.38
2022-11-04T06:51:52.393Z,45.63
2022-11-04T06:54:20.396Z,38.17
2022-11-04T06:56:49.245Z,43.90
2022-11-04T07:01:46.971Z,36.42
2022-11-04T07:04:17.516Z,36.58
2022-11-04T07:06:45.737Z,40.58
2022-11-04T07:09:15.889Z,38.88
2022-11-04T07:11:45.265Z,40.90
2022-11-04T07:14:14.138Z,38.72
2022-11-04T07:16:42.218Z,38.63
2022-11-04T07:19:10.332Z,43.05
2022-11-04T07:21:38.244Z,43.22
2022-11-04T07:24:07.508Z,42.35
2022-11-04T07:26:35.975Z,44.17
2022-11-04T07:29:06.049Z,41.75
2022-11-04T07:31:34.584Z,39.33
2022-11-04T07:34:03.332Z,41.33
2022-11-04T07:36:31.365Z,37.38
2022-11-04T07:38:59.350Z,38.55
2022-11-04T07:41:27.487Z,39.05
2022-11-04T07:43:55.483Z,39.88
2022-11-04T07:46:23.710Z,36.85
2022-11-04T07:48:51.666Z,33.92
2022-11-04T07:51:21.344Z,40.75
2022-11-04T07:53:49.349Z,34.28
2022-11-04T08:07:09.788Z,36.85
2022-11-04T08:09:37.824Z,36.10
2022-11-04T08:12:06.208Z,33.25
2022-11-04T08:14:34.385Z,34.92
2022-11-04T08:17:02.614Z,34.08
2022-11-04T08:19:31.575Z,35.30
2022-11-04T08:21:59.715Z,36.80
2022-11-04T08:24:27.703Z,31.70
2022-11-04T08:26:55.776Z,32.05
2022-11-04T08:29:23.967Z,32.20
2022-11-04T08:31:52.021Z,35.72
2022-11-04T08:34:20.184Z,31.65
2022-11-04T08:36:48.991Z,30.45
2022-11-04T08:39:17.028Z,32.90
2022-11-04T08:41:46.183Z,26.88
2022-11-04T08:44:14.622Z,29.50
2022-11-04T08:46:44.718Z,28.60
2022-11-04T08:49:17.792Z,30.55
2022-11-04T08:51:56.546Z,32.33
2022-11-04T08:54:25.471Z,35.75
2022-11-04T08:56:54.025Z,33.78
2022-11-04T08:59:22.130Z,33.67
2022-11-04T09:01:50.191Z,26.77
2022-11-04T09:04:19.873Z,29.33
2022-11-04T09:06:47.991Z,32.55
2022-11-04T09:09:17.695Z,34.88
2022-11-04T09:11:46.518Z,29.38
2022-11-04T09:14:15.012Z,29.23
2022-11-04T09:16:43.244Z,26.80
2022-11-04T09:19:11.208Z,27.63
2022-11-04T09:21:39.160Z,26.33
2022-11-04T09:24:08.085Z,26.00
2022-11-04T09:26:36.279Z,26.77
2022-11-04T09:29:04.351Z,21.55
2022-11-04T09:31:32.438Z,24.98
2022-11-04T09:34:00.459Z,22.65
2022-11-04T09:36:29.513Z,24.40
2022-11-04T09:38:57.652Z,23.75
2022-11-04T09:41:35.036Z,28.52
2022-11-04T09:45:14.949Z,25.92
2022-11-04T09:47:33.700Z,22.63
2022-11-04T09:50:02.957Z,26.02
2022-11-04T09:52:33.386Z,23.05
2022-11-04T09:55:07.685Z,25.85
2022-11-04T09:57:35.672Z,22.40
2022-11-04T10:00:05.144Z,23.15
2022-11-04T10:02:49.655Z,24.13
2022-11-04T10:05:32.528Z,24.20
2022-11-04T10:08:18.739Z,24.52
2022-11-04T10:10:55.555Z,24.48
2022-11-04T10:13:49.691Z,22.42
2022-11-04T10:16:56.625Z,22.40
2022-11-04T10:19:45.461Z,26.52
2022-11-04T10:22:29.360Z,23.38
2022-11-04T10:25:08.882Z,24.15
2022-11-04T10:27:39.144Z,22.80
2022-11-04T10:30:16.495Z,26.88
2022-11-04T10:33:02.159Z,30.33
2022-11-04T10:35:37.099Z,25.27
2022-11-04T10:38:22.904Z,22.00
2022-11-04T10:40:53.820Z,24.08
2022-11-04T10:43:31.732Z,28.40
2022-11-04T10:46:08.136Z,26.58
2022-11-04T10:48:49.495Z,27.77
2022-11-04T10:51:22.578Z,23.83
2022-11-04T10:54:01.545Z,26.00
2022-11-04T10:56:37.000Z,21.73
2022-11-04T10:59:27.283Z,20.15
2022-11-04T11:02:00.591Z,20.95
2022-11-04T11:04:34.218Z,23.73
2022-11-04T11:07:11.307Z,21.50
2022-11-04T11:09:53.369Z,32.40
2022-11-04T11:12:50.728Z,23.48
2022-11-04T11:15:41.573Z,25.30
2022-11-04T11:18:16.129Z,27.95
2022-11-04T11:20:51.035Z,25.48
2022-11-04T11:23:36.185Z,37.58
2022-11-04T11:26:07.673Z,23.80
2022-11-04T11:28:40.726Z,23.67
2022-11-04T11:31:16.582Z,23.88
2022-11-04T11:33:53.107Z,20.17
2022-11-04T11:36:30.341Z,21.23
2022-11-04T11:39:29.009Z,23.90
2022-11-04T11:42:07.226Z,25.30
2022-11-04T11:44:38.984Z,19.98
2022-11-04T11:47:19.785Z,24.83
2022-11-04T11:50:26.338Z,23.08
2022-11-04T11:53:15.051Z,19.60
2022-11-04T11:55:57.846Z,21.55
2022-11-04T12:10:49.872Z,25.58
2022-11-04T12:13:43.460Z,22.52
2022-11-04T12:16:26.676Z,19.15
2022-11-04T12:19:03.651Z,22.38
2022-11-04T12:21:44.742Z,24.08
2022-11-04T12:24:30.611Z,26.13
2022-11-04T12:27:21.026Z,28.33
2022-11-04T12:30:10.730Z,21.38
2022-11-04T12:32:58.592Z,39.15
2022-11-04T12:35:44.719Z,38.78
2022-11-04T12:38:28.020Z,25.75
2022-11-04T12:41:41.872Z,27.23
2022-11-04T12:44:13.616Z,26.05
2022-11-04T12:46:51.000Z,22.63
2022-11-04T12:49:31.872Z,21.55
2022-11-04T12:54:36.674Z,25.30
2022-11-04T12:57:19.210Z,19.58
2022-11-04T12:59:53.489Z,21.67
2022-11-04T13:03:03.119Z,20.67
2022-11-04T13:05:34.258Z,19.98
2022-11-04T13:08:15.848Z,25.88
2022-11-04T13:11:00.429Z,23.42
2022-11-04T13:13:34.885Z,27.33
2022-11-04T13:16:10.137Z,26.27
2022-11-04T13:18:40.818Z,19.80
2022-11-04T13:21:16.256Z,26.42
2022-11-04T13:24:13.565Z,28.25
2022-11-04T13:26:41.556Z,21.30
2022-11-04T13:29:21.655Z,25.35
2022-11-04T13:32:05.943Z,24.77
2022-11-04T13:34:39.849Z,21.80
2022-11-04T13:37:17.558Z,23.45
2022-11-04T13:39:52.279Z,29.30
2022-11-04T13:42:45.092Z,27.08
2022-11-04T13:45:16.269Z,27.33
2022-11-04T13:47:50.846Z,24.55
2022-11-04T13:50:32.246Z,22.40
2022-11-04T13:53:00.644Z,21.42
2022-11-04T13:55:28.692Z,19.88
2022-11-04T13:58:02.045Z,35.42
2022-11-04T14:00:31.885Z,22.33
2022-11-04T14:03:21.271Z,22.83
2022-11-04T14:06:05.925Z,19.13
2022-11-04T14:08:34.978Z,22.95
2022-11-04T14:11:06.901Z,19.92
2022-11-04T14:13:42.742Z,20.48
2022-11-04T14:16:25.978Z,19.85
2022-11-04T14:18:54.785Z,18.15
2022-11-04T14:21:27.793Z,31.70
2022-11-04T14:24:00.416Z,22.70
2022-11-04T14:26:49.120Z,25.05
2022-11-04T14:29:23.806Z,20.35
2022-11-04T14:34:31.417Z,23.70
2022-11-04T14:37:02.204Z,22.40
2022-11-04T14:39:42.617Z,24.95
2022-11-04T14:42:14.878Z,19.58
2022-11-04T14:44:49.595Z,17.52
2022-11-04T14:47:31.111Z,24.33
2022-11-04T14:49:59.083Z,19.50
2022-11-04T14:52:27.318Z,19.98
2022-11-04T14:55:05.585Z,23.63
2022-11-04T14:57:39.486Z,20.85
2022-11-04T15:00:26.760Z,20.85
2022-11-04T15:03:57.353Z,24.90
2022-11-04T15:06:07.557Z,21.17
2022-11-04T15:08:41.500Z,23.42
2022-11-04T15:11:16.935Z,23.65
2022-11-04T15:13:51.175Z,31.05
2022-11-04T15:16:28.889Z,26.20
2022-11-04T15:19:05.998Z,23.73
2022-11-04T15:21:40.957Z,28.05
2022-11-04T15:24:17.856Z,31.25
2022-11-04T15:26:51.959Z,24.90
2022-11-04T15:29:23.304Z,23.67
2022-11-04T15:31:58.233Z,36.92
2022-11-04T15:34:28.827Z,31.15
2022-11-04T15:37:00.981Z,34.45
2022-11-04T15:39:43.794Z,34.83
2022-11-04T15:42:37.335Z,27.25
2022-11-04T15:45:31.456Z,35.80
2022-11-04T15:48:26.141Z,27.85
2022-11-04T15:51:05.022Z,30.90
2022-11-04T15:53:35.168Z,42.13
2022-11-04T15:56:05.893Z,28.85
2022-11-04T15:58:34.997Z,37.72
2022-11-04T16:01:03.376Z,25.10
2022-11-04T16:03:31.496Z,35.17
2022-11-04T16:06:17.568Z,33.05
2022-11-04T16:09:03.375Z,29.73
2022-11-04T16:11:31.638Z,30.90
2022-11-04T16:14:25.337Z,26.30
2022-11-04T16:16:54.754Z,36.00
2022-11-04T16:19:27.074Z,36.22
2022-11-04T16:22:09.524Z,40.08
2022-11-04T16:24:43.134Z,27.23
2022-11-04T16:27:11.881Z,34.33
2022-11-04T16:29:45.238Z,29.90
2022-11-04T16:32:27.221Z,36.40
2022-11-04T16:35:03.330Z,46.10
2022-11-04T16:37:32.998Z,31.27
2022-11-04T16:40:01.607Z,24.45
2022-11-04T16:42:30.321Z,24.83
2022-11-04T16:45:02.888Z,25.50
2022-11-04T16:47:36.532Z,21.75
2022-11-04T16:50:14.837Z,21.67
2022-11-04T16:52:44.458Z,23.05
2022-11-04T16:55:14.326Z,23.38
2022-11-04T16:57:44.491Z,24.92
2022-11-04T17:00:25.189Z,24.05
2022-11-04T17:02:53.858Z,22.95
2022-11-04T17:05:22.249Z,22.02
2022-11-04T17:07:54.502Z,21.02
2022-11-04T17:10:28.334Z,25.20
2022-11-04T17:12:57.503Z,22.45
2022-11-04T17:15:26.271Z,23.80
2022-11-04T17:17:54.992Z,48.60
2022-11-04T17:20:23.547Z,37.70
2022-11-04T17:25:24.429Z,60.67
2022-11-04T17:27:53.402Z,54.55
2022-11-04T17:30:23.510Z,51.88
2022-11-04T17:32:52.607Z,55.13
2022-11-04T17:35:21.252Z,45.10
2022-11-04T17:40:24.431Z,21.83
2022-11-04T17:43:12.726Z,22.33
2022-11-04T17:45:44.602Z,25.35
2022-11-04T17:48:14.622Z,33.25
2022-11-04T17:50:43.190Z,40.45
2022-11-04T17:53:11.988Z,53.53
2022-11-04T17:55:41.228Z,28.17
2022-11-04T17:58:10.273Z,23.45
2022-11-04T18:11:49.678Z,26.98
2022-11-04T18:14:28.962Z,34.75
2022-11-04T18:16:57.767Z,23.13
2022-11-04T18:19:27.439Z,29.35
2022-11-04T18:21:56.288Z,28.83
2022-11-04T18:26:53.775Z,24.40
2022-11-04T18:29:23.120Z,21.52
2022-11-04T18:31:51.676Z,22.25
2022-11-04T18:36:49.406Z,21.63
2022-11-04T18:39:19.456Z,23.50
2022-11-04T18:41:48.943Z,21.27
2022-11-04T18:44:20.600Z,19.75
2022-11-04T18:46:50.282Z,19.60
2022-11-04T18:49:19.114Z,21.73
2022-11-04T18:51:47.936Z,28.13
2022-11-04T18:56:44.976Z,24.55
2022-11-04T18:59:16.167Z,32.13
2022-11-04T19:01:46.057Z,23.98
2022-11-04T19:04:15.282Z,21.95
2022-11-04T19:09:45.593Z,19.90
2022-11-04T19:12:24.329Z,19.85
2022-11-04T19:14:53.527Z,29.67
2022-11-04T19:17:22.715Z,30.13
2022-11-04T19:19:51.828Z,33.80
2022-11-04T19:22:20.543Z,26.15
2022-11-04T19:24:49.519Z,35.58
2022-11-04T19:27:19.950Z,28.55
2022-11-04T19:29:49.073Z,29.63
2022-11-04T19:32:17.949Z,29.42
2022-11-04T19:34:46.872Z,32.20
2022-11-04T19:37:15.658Z,33.72
2022-11-04T19:42:52.490Z,28.88
2022-11-04T19:45:36.727Z,31.63
2022-11-04T19:48:18.007Z,27.25
2022-11-04T19:50:58.250Z,25.55
2022-11-04T19:53:43.442Z,24.45
2022-11-04T19:56:35.520Z,32.22
2022-11-04T19:59:30.089Z,23.98
2022-11-04T20:02:34.907Z,24.90
2022-11-04T20:05:12.966Z,23.60
2022-11-04T20:08:03.149Z,23.00
2022-11-04T20:11:06.891Z,23.48
2022-11-04T20:13:53.679Z,23.15
2022-11-04T20:19:35.453Z,20.10
2022-11-04T20:25:02.003Z,26.92
2022-11-04T20:30:31.370Z,32.65
2022-11-04T20:35:57.769Z,22.55
2022-11-04T20:38:43.760Z,27.70
2022-11-04T20:41:40.397Z,25.77
2022-11-04T20:50:39.047Z,19.67
2022-11-04T20:53:45.206Z,20.50
2022-11-04T20:57:25.681Z,24.65
2022-11-04T21:00:08.808Z,23.50
2022-11-04T21:03:03.306Z,23.30
2022-11-04T21:15:52.897Z,24.83
2022-11-04T21:18:33.118Z,22.98
2022-11-04T21:21:18.486Z,31.30
2022-11-04T21:23:58.129Z,26.77
2022-11-04T21:26:28.978Z,27.52
2022-11-04T21:29:16.243Z,23.83
2022-11-04T21:31:48.418Z,27.50
2022-11-04T21:34:17.070Z,23.55
2022-11-04T21:36:46.105Z,27.02
2022-11-04T21:39:16.363Z,23.00
2022-11-04T21:41:45.928Z,28.30
2022-11-04T21:44:15.103Z,24.83
2022-11-04T21:46:43.627Z,28.27
2022-11-04T21:49:12.825Z,33.97
2022-11-04T21:51:53.354Z,28.48
2022-11-04T21:54:42.029Z,26.73
2022-11-04T21:57:34.554Z,27.58
2022-11-04T22:01:18.254Z,23.30
2022-11-04T22:04:43.443Z,29.27
2022-11-04T22:18:23.802Z,30.60
2022-11-04T22:33:31.493Z,26.98
2022-11-04T22:38:07.969Z,25.88
2022-11-04T22:45:30.216Z,24.23
2022-11-04T22:48:06.928Z,25.52
2022-11-04T22:55:11.533Z,26.23
2022-11-04T22:57:41.798Z,26.30
2022-11-04T23:00:12.906Z,22.70
2022-11-04T23:02:42.597Z,23.45
2022-11-04T23:05:10.531Z,24.67
2022-11-04T23:07:45.272Z,23.48
2022-11-04T23:10:31.856Z,25.20
2022-11-04T23:13:21.023Z,24.83
2022-11-04T23:16:32.579Z,26.15
2022-11-04T23:23:36.862Z,29.30
2022-11-04T23:46:45.580Z,24.15
2022-11-04T23:50:48.767Z,31.50
